createdAt,value
2022-09-17T00:01:23.755Z,18.00
2022-09-17T00:03:53.773Z,13.77
2022-09-17T00:06:22.908Z,14.20
2022-09-17T00:08:51.771Z,18.52
2022-09-17T00:11:26.320Z,19.40
2022-09-17T00:13:55.208Z,14.35
2022-09-17T00:16:29.238Z,7.72
2022-09-17T00:18:57.949Z,12.75
2022-09-17T00:21:26.092Z,23.17
2022-09-17T00:23:58.949Z,14.52
2022-09-17T00:26:27.481Z,6.03
2022-09-17T00:28:56.240Z,12.00
2022-09-17T00:31:24.999Z,12.32
2022-09-17T00:33:53.310Z,13.27
2022-09-17T00:36:22.107Z,10.60
2022-09-17T00:38:57.788Z,9.20
2022-09-17T00:41:29.318Z,9.50
2022-09-17T00:44:00.750Z,13.18
2022-09-17T00:46:43.205Z,12.32
2022-09-17T00:49:15.754Z,8.63
2022-09-17T00:52:00.282Z,7.03
2022-09-17T00:54:29.083Z,7.53
2022-09-17T00:56:58.661Z,8.15
2022-09-17T00:59:27.050Z,8.32
2022-09-17T01:01:54.912Z,5.35
2022-09-17T01:04:26.203Z,10.20
2022-09-17T01:06:59.654Z,12.70
2022-09-17T01:09:48.955Z,9.52
2022-09-17T01:12:28.477Z,12.20
2022-09-17T01:15:26.732Z,3.53
2022-09-17T01:17:59.722Z,5.50
2022-09-17T01:20:39.192Z,14.52
2022-09-17T01:23:06.403Z,9.55
2022-09-17T01:25:51.490Z,12.98
2022-09-17T01:28:24.803Z,4.28
2022-09-17T01:30:51.821Z,5.68
2022-09-17T01:33:38.400Z,6.57
2022-09-17T01:36:34.525Z,5.65
2022-09-17T01:39:32.780Z,4.63
2022-09-17T01:42:18.693Z,6.07
2022-09-17T01:44:53.103Z,4.70
2022-09-17T01:47:27.704Z,3.25
2022-09-17T01:50:01.195Z,1.92
2022-09-17T01:52:32.233Z,7.70
2022-09-17T01:55:04.929Z,3.63
2022-09-17T01:57:45.374Z,3.17
2022-09-17T02:00:14.655Z,6.20
2022-09-17T02:02:50.631Z,6.28
2022-09-17T02:05:40.143Z,3.58
2022-09-17T02:08:18.738Z,5.18
2022-09-17T02:11:02.851Z,2.97
2022-09-17T02:13:41.159Z,5.22
2022-09-17T02:16:16.625Z,2.13
2022-09-17T02:18:57.097Z,2.40
2022-09-17T02:21:40.740Z,4.93
2022-09-17T02:24:11.159Z,3.80
2022-09-17T02:26:44.584Z,4.15
2022-09-17T02:29:25.192Z,2.70
2022-09-17T02:31:52.614Z,6.07
2022-09-17T02:34:20.381Z,12.02
2022-09-17T02:36:47.840Z,5.65
2022-09-17T02:39:17.524Z,10.48
2022-09-17T02:41:50.580Z,8.95
2022-09-17T02:44:45.593Z,6.00
2022-09-17T02:47:54.853Z,6.38
2022-09-17T02:50:59.028Z,3.95
2022-09-17T02:53:45.925Z,6.45
2022-09-17T02:56:40.431Z,5.53
2022-09-17T02:59:19.932Z,6.50
2022-09-17T03:02:28.605Z,6.43
2022-09-17T03:04:57.452Z,6.20
2022-09-17T03:07:26.511Z,2.85
2022-09-17T03:09:53.721Z,3.75
2022-09-17T03:12:21.039Z,5.20
2022-09-17T03:14:48.749Z,5.68
2022-09-17T03:17:15.976Z,8.82
2022-09-17T03:19:44.145Z,3.15
2022-09-17T03:22:11.739Z,3.53
2022-09-17T03:24:39.012Z,3.38
2022-09-17T03:27:06.857Z,3.13
2022-09-17T03:29:34.141Z,3.78
2022-09-17T03:32:02.169Z,0.93
2022-09-17T03:34:29.500Z,3.13
2022-09-17T03:36:56.914Z,0.70
2022-09-17T03:39:24.859Z,4.78
2022-09-17T03:41:52.095Z,0.63
2022-09-17T03:44:19.471Z,1.55
2022-09-17T03:46:47.806Z,4.13
2022-09-17T03:49:15.183Z,2.30
2022-09-17T03:51:42.474Z,4.63
2022-09-17T03:54:10.097Z,0.63
2022-09-17T03:56:37.787Z,1.23
2022-09-17T03:59:05.031Z,0.65
2022-09-17T04:01:32.874Z,1.00
2022-09-17T04:04:00.281Z,1.42
2022-09-17T04:06:28.001Z,1.48
2022-09-17T04:08:56.885Z,2.00
2022-09-17T04:11:24.130Z,0.40
2022-09-17T04:13:52.118Z,4.03
2022-09-17T04:16:19.423Z,0.77
2022-09-17T04:18:47.304Z,0.50
2022-09-17T04:21:15.054Z,0.50
2022-09-17T04:23:42.584Z,0.43
2022-09-17T04:26:10.780Z,8.15
2022-09-17T04:28:38.232Z,0.90
2022-09-17T04:31:06.151Z,0.43
2022-09-17T04:33:34.027Z,2.08
2022-09-17T04:36:01.484Z,1.63
2022-09-17T04:38:28.753Z,1.70
2022-09-17T04:40:57.363Z,1.83
2022-09-17T04:43:24.652Z,2.35
2022-09-17T04:45:52.575Z,0.77
2022-09-17T04:48:19.880Z,0.75
2022-09-17T04:50:47.177Z,1.75
2022-09-17T04:53:14.596Z,4.25
2022-09-17T04:55:43.659Z,1.60
2022-09-17T04:58:11.872Z,1.52
2022-09-17T05:00:45.808Z,8.02
2022-09-17T05:03:13.347Z,1.30
2022-09-17T05:05:40.616Z,2.10
2022-09-17T05:08:08.473Z,13.85
2022-09-17T05:10:35.728Z,1.90
2022-09-17T05:13:03.490Z,4.55
2022-09-17T05:15:31.103Z,4.88
2022-09-17T05:17:58.312Z,5.25
2022-09-17T05:20:25.508Z,3.60
2022-09-17T05:22:52.827Z,0.98
2022-09-17T05:25:26.203Z,7.88
2022-09-17T05:27:54.744Z,4.45
2022-09-17T05:30:22.564Z,5.30
2022-09-17T05:32:59.006Z,1.38
2022-09-17T05:35:26.728Z,1.05
2022-09-17T05:38:01.141Z,2.85
2022-09-17T05:40:29.303Z,3.45
2022-09-17T05:43:01.679Z,3.97
2022-09-17T05:45:29.982Z,2.72
2022-09-17T05:47:58.288Z,0.80
2022-09-17T05:50:27.592Z,0.85
2022-09-17T05:52:55.220Z,5.07
2022-09-17T05:55:23.754Z,3.10
2022-09-17T05:57:51.680Z,1.85
2022-09-17T06:00:19.029Z,1.65
2022-09-17T06:02:46.784Z,2.25
2022-09-17T06:05:14.760Z,2.47
2022-09-17T06:07:41.948Z,13.20
2022-09-17T06:10:09.427Z,10.48
2022-09-17T06:12:36.726Z,9.05
2022-09-17T06:15:04.938Z,12.50
2022-09-17T06:17:36.496Z,7.93
2022-09-17T06:20:05.412Z,7.57
2022-09-17T06:22:33.485Z,12.18
2022-09-17T06:25:02.277Z,4.95
2022-09-17T06:27:33.929Z,12.15
2022-09-17T06:32:29.564Z,6.88
2022-09-17T06:34:57.772Z,10.68
2022-09-17T06:37:29.628Z,17.25
2022-09-17T06:39:57.935Z,20.75
2022-09-17T06:42:26.844Z,15.30
2022-09-17T06:44:54.333Z,8.75
2022-09-17T06:47:24.845Z,9.50
2022-09-17T06:49:52.835Z,12.00
2022-09-17T06:52:20.092Z,16.70
2022-09-17T06:54:47.317Z,8.70
2022-09-17T06:57:15.009Z,6.00
2022-09-17T06:59:42.931Z,5.13
2022-09-17T07:02:10.634Z,12.60
2022-09-17T07:04:37.970Z,4.90
2022-09-17T07:07:05.488Z,8.05
2022-09-17T07:09:33.104Z,6.53
2022-09-17T07:12:00.505Z,6.25
2022-09-17T07:14:28.253Z,4.63
2022-09-17T07:16:55.817Z,2.78
2022-09-17T07:19:23.180Z,7.35
2022-09-17T07:21:51.249Z,3.10
2022-09-17T07:24:19.216Z,4.50
2022-09-17T07:26:46.799Z,2.95
2022-09-17T07:29:14.684Z,2.95
2022-09-17T07:31:42.656Z,6.65
2022-09-17T07:34:10.619Z,4.55
2022-09-17T07:36:37.866Z,2.63
2022-09-17T07:39:05.105Z,8.57
2022-09-17T07:41:34.336Z,3.10
2022-09-17T07:44:02.553Z,8.45
2022-09-17T07:46:30.778Z,3.13
2022-09-17T07:48:58.073Z,8.82
2022-09-17T07:51:28.601Z,1.85
2022-09-17T07:53:57.997Z,3.55
2022-09-17T07:56:27.292Z,1.35
2022-09-17T07:58:56.435Z,1.25
2022-09-17T08:01:24.025Z,2.53
2022-09-17T08:03:53.068Z,3.10
2022-09-17T08:06:24.340Z,2.83
2022-09-17T08:08:52.708Z,2.10
2022-09-17T08:11:38.584Z,0.90
2022-09-17T08:14:13.193Z,2.30
2022-09-17T08:16:41.599Z,2.85
2022-09-17T08:19:11.847Z,2.90
2022-09-17T08:21:39.208Z,2.50
2022-09-17T08:24:06.795Z,0.70
2022-09-17T08:26:34.074Z,0.75
2022-09-17T08:29:01.583Z,3.50
2022-09-17T08:31:30.248Z,3.35
2022-09-17T08:33:57.959Z,1.25
2022-09-17T08:36:28.631Z,1.52
2022-09-17T08:38:56.736Z,2.88
2022-09-17T08:41:36.807Z,0.40
2022-09-17T08:44:05.140Z,2.78
2022-09-17T08:46:37.171Z,0.47
2022-09-17T08:49:18.321Z,1.45
2022-09-17T08:51:58.468Z,1.40
2022-09-17T08:54:32.147Z,2.90
2022-09-17T08:57:22.688Z,4.40
2022-09-17T09:00:22.658Z,2.58
2022-09-17T09:03:47.063Z,3.25
2022-09-17T09:06:15.680Z,1.35
2022-09-17T09:08:49.067Z,1.05
2022-09-17T09:11:22.656Z,0.85
2022-09-17T09:13:55.349Z,1.63
2022-09-17T09:16:27.218Z,1.75
2022-09-17T09:18:56.187Z,1.60
2022-09-17T09:21:39.364Z,11.20
2022-09-17T09:24:21.649Z,1.00
2022-09-17T09:27:07.486Z,3.50
2022-09-17T09:30:02.163Z,0.30
2022-09-17T09:33:21.148Z,2.75
2022-09-17T09:35:48.529Z,1.23
2022-09-17T09:38:31.554Z,0.95
2022-09-17T09:41:06.357Z,0.20
2022-09-17T09:44:12.495Z,0.45
2022-09-17T09:46:44.364Z,0.88
2022-09-17T09:49:30.024Z,0.63
2022-09-17T09:52:08.929Z,0.30
2022-09-17T09:54:58.340Z,0.50
2022-09-17T09:57:47.264Z,1.17
2022-09-17T10:00:37.658Z,0.63
2022-09-17T10:03:15.086Z,2.55
2022-09-17T10:05:54.629Z,1.65
2022-09-17T10:08:22.463Z,0.65
2022-09-17T10:10:56.001Z,0.50
2022-09-17T10:13:24.242Z,2.53
2022-09-17T10:15:51.877Z,0.95
2022-09-17T10:18:21.943Z,0.40
2022-09-17T10:20:51.740Z,0.68
2022-09-17T10:23:21.129Z,1.45
2022-09-17T10:25:50.139Z,0.30
2022-09-17T10:28:37.675Z,1.80
2022-09-17T10:31:10.734Z,2.75
2022-09-17T10:33:50.376Z,0.75
2022-09-17T10:36:38.024Z,0.30
2022-09-17T10:39:27.676Z,0.20
2022-09-17T10:42:03.504Z,2.20
2022-09-17T10:44:36.618Z,2.65
2022-09-17T10:47:11.349Z,3.10
2022-09-17T10:49:46.681Z,0.55
2022-09-17T10:52:22.339Z,1.27
2022-09-17T10:55:23.646Z,0.52
2022-09-17T10:58:09.154Z,1.65
2022-09-17T11:00:44.345Z,0.45
2022-09-17T11:03:56.412Z,1.65
2022-09-17T11:06:44.456Z,0.82
2022-09-17T11:09:24.075Z,0.25
2022-09-17T11:12:19.300Z,0.20
2022-09-17T11:14:47.843Z,1.95
2022-09-17T11:17:36.572Z,0.75
2022-09-17T11:20:16.038Z,3.13
2022-09-17T11:23:13.298Z,0.40
2022-09-17T11:25:46.577Z,0.20
2022-09-17T11:28:22.311Z,3.00
2022-09-17T11:31:24.078Z,0.45
2022-09-17T11:34:26.747Z,0.65
2022-09-17T11:37:15.796Z,0.20
2022-09-17T11:39:55.145Z,1.15
2022-09-17T11:42:28.099Z,0.45
2022-09-17T11:45:03.876Z,0.40
2022-09-17T11:47:39.620Z,3.22
2022-09-17T11:50:46.160Z,2.15
2022-09-17T11:53:32.207Z,0.80
2022-09-17T11:56:04.620Z,0.45
2022-09-17T11:58:43.993Z,1.67
2022-09-17T12:01:17.085Z,0.65
2022-09-17T12:03:52.966Z,3.60
2022-09-17T12:06:42.753Z,0.82
2022-09-17T12:09:17.235Z,0.93
2022-09-17T12:12:01.678Z,2.28
2022-09-17T12:14:43.695Z,4.10
2022-09-17T12:17:19.325Z,0.82
2022-09-17T12:19:54.120Z,0.35
2022-09-17T12:22:40.079Z,0.22
2022-09-17T12:25:14.159Z,2.40
2022-09-17T12:28:00.876Z,1.00
2022-09-17T12:30:44.912Z,0.75
2022-09-17T12:33:46.037Z,0.63
2022-09-17T12:36:42.794Z,0.30
2022-09-17T12:39:29.376Z,1.13
2022-09-17T12:42:03.676Z,0.77
2022-09-17T12:44:43.607Z,0.40
2022-09-17T12:47:30.051Z,0.43
2022-09-17T12:50:13.511Z,1.23
2022-09-17T12:53:08.287Z,0.63
2022-09-17T12:55:41.319Z,0.98
2022-09-17T12:58:38.009Z,0.20
2022-09-17T13:01:21.222Z,3.95
2022-09-17T13:04:38.199Z,0.28
2022-09-17T13:07:53.507Z,0.95
2022-09-17T13:10:26.901Z,1.13
2022-09-17T13:13:06.545Z,0.28
2022-09-17T13:15:52.558Z,0.60
2022-09-17T13:18:59.379Z,0.43
2022-09-17T13:22:01.669Z,2.25
2022-09-17T13:24:31.600Z,1.15
2022-09-17T13:27:02.344Z,0.20
2022-09-17T13:29:44.798Z,0.73
2022-09-17T13:32:33.902Z,0.52
2022-09-17T13:35:10.105Z,0.30
2022-09-17T13:37:39.244Z,0.43
2022-09-17T13:40:22.187Z,0.85
2022-09-17T13:42:57.031Z,0.30
2022-09-17T13:45:27.030Z,0.35
2022-09-17T13:47:56.153Z,0.32
2022-09-17T13:50:32.027Z,0.25
2022-09-17T13:53:08.305Z,2.05
2022-09-17T13:55:38.493Z,1.58
2022-09-17T13:58:11.361Z,4.85
2022-09-17T14:01:01.661Z,0.30
2022-09-17T14:03:28.973Z,3.35
2022-09-17T14:06:06.385Z,0.50
2022-09-17T14:08:58.067Z,0.22
2022-09-17T14:11:26.456Z,0.10
2022-09-17T14:14:14.381Z,2.28
2022-09-17T14:16:47.524Z,0.17
2022-09-17T14:19:37.003Z,0.40
2022-09-17T14:22:07.685Z,1.13
2022-09-17T14:24:47.003Z,0.20
2022-09-17T14:27:51.013Z,0.32
2022-09-17T14:30:23.283Z,0.40
2022-09-17T14:33:12.822Z,0.30
2022-09-17T14:35:46.037Z,1.20
2022-09-17T14:38:24.946Z,0.20
2022-09-17T14:41:06.413Z,2.88
2022-09-17T14:43:43.073Z,7.43
2022-09-17T14:46:22.383Z,1.70
2022-09-17T14:48:50.909Z,3.83
2022-09-17T14:51:20.704Z,1.55
2022-09-17T14:54:06.688Z,0.30
2022-09-17T14:56:36.546Z,0.28
2022-09-17T14:59:04.638Z,3.50
2022-09-17T15:01:31.902Z,0.30
2022-09-17T15:04:20.631Z,0.15
2022-09-17T15:06:48.544Z,0.30
2022-09-17T15:09:23.479Z,0.75
2022-09-17T15:11:54.698Z,4.45
2022-09-17T15:14:29.790Z,0.30
2022-09-17T15:17:00.376Z,0.40
2022-09-17T15:19:35.981Z,0.40
2022-09-17T15:22:10.128Z,0.20
2022-09-17T15:24:43.847Z,1.00
2022-09-17T15:27:17.117Z,0.50
2022-09-17T15:29:50.105Z,0.20
2022-09-17T15:32:18.036Z,0.20
2022-09-17T15:34:46.264Z,0.35
2022-09-17T15:37:21.084Z,0.30
2022-09-17T15:39:51.717Z,1.23
2022-09-17T15:42:22.683Z,0.30
2022-09-17T15:44:50.726Z,0.90
2022-09-17T15:47:46.769Z,0.45
2022-09-17T15:50:14.530Z,0.50
2022-09-17T15:52:42.376Z,0.75
2022-09-17T15:55:57.417Z,0.13
2022-09-17T15:58:30.381Z,0.65
2022-09-17T16:01:06.668Z,4.07
2022-09-17T16:04:01.888Z,0.60
2022-09-17T16:06:29.652Z,0.90
2022-09-17T16:08:58.852Z,1.20
2022-09-17T16:11:32.659Z,8.60
2022-09-17T16:14:01.600Z,0.40
2022-09-17T16:16:33.363Z,2.63
2022-09-17T16:19:01.178Z,1.02
2022-09-17T16:21:29.125Z,0.45
2022-09-17T16:23:58.157Z,0.20
2022-09-17T16:26:30.515Z,1.20
2022-09-17T16:29:05.820Z,0.20
2022-09-17T16:31:34.413Z,0.63
2022-09-17T16:34:01.912Z,0.38
2022-09-17T16:36:31.776Z,0.68
2022-09-17T16:38:59.648Z,0.30
2022-09-17T16:41:26.957Z,3.13
2022-09-17T16:43:55.193Z,0.75
2022-09-17T16:46:22.565Z,1.58
2022-09-17T16:48:50.608Z,0.25
2022-09-17T16:51:17.880Z,2.08
2022-09-17T16:53:45.775Z,2.75
2022-09-17T16:56:15.604Z,0.40
2022-09-17T16:58:43.521Z,0.52
2022-09-17T17:01:16.543Z,1.45
2022-09-17T17:03:45.675Z,0.20
2022-09-17T17:06:21.458Z,1.77
2022-09-17T17:08:49.183Z,3.47
2022-09-17T17:11:17.197Z,1.52
2022-09-17T17:13:45.367Z,1.20
2022-09-17T17:16:14.832Z,1.85
2022-09-17T17:18:43.976Z,0.63
2022-09-17T17:21:13.284Z,0.38
2022-09-17T17:23:43.562Z,2.53
2022-09-17T17:26:10.832Z,0.93
2022-09-17T17:28:38.413Z,3.13
2022-09-17T17:31:06.444Z,3.25
2022-09-17T17:33:34.247Z,1.42
2022-09-17T17:36:07.848Z,6.05
2022-09-17T17:38:36.973Z,3.80
2022-09-17T17:41:12.315Z,4.35
2022-09-17T17:43:40.468Z,1.42
2022-09-17T17:46:09.756Z,1.65
2022-09-17T17:48:37.415Z,1.17
2022-09-17T17:51:07.212Z,0.93
2022-09-17T17:53:35.242Z,0.57
2022-09-17T17:56:05.894Z,1.02
2022-09-17T17:58:34.827Z,0.55
2022-09-17T18:01:23.567Z,0.75
2022-09-17T18:03:55.261Z,2.80
2022-09-17T18:06:22.513Z,2.50
2022-09-17T18:08:50.133Z,2.22
2022-09-17T18:11:17.465Z,5.95
2022-09-17T18:13:44.894Z,5.20
2022-09-17T18:16:14.094Z,12.98
2022-09-17T18:18:45.121Z,6.82
2022-09-17T18:21:18.581Z,2.25
2022-09-17T18:23:47.089Z,5.07
2022-09-17T18:26:19.860Z,4.97
2022-09-17T18:28:47.508Z,5.10
2022-09-17T18:31:22.940Z,2.63
2022-09-17T18:34:09.770Z,1.80
2022-09-17T18:36:39.050Z,2.75
2022-09-17T18:39:56.791Z,1.33
2022-09-17T18:41:56.564Z,2.17
2022-09-17T18:44:25.077Z,1.92
2022-09-17T18:46:52.382Z,6.53
2022-09-17T18:49:19.696Z,0.98
2022-09-17T18:51:46.893Z,2.53
2022-09-17T18:54:14.180Z,1.08
2022-09-17T18:56:42.258Z,1.73
2022-09-17T18:59:10.277Z,1.95
2022-09-17T19:01:37.753Z,3.10
2022-09-17T19:04:07.420Z,2.30
2022-09-17T19:06:35.821Z,1.27
2022-09-17T19:09:04.916Z,4.35
2022-09-17T19:11:34.272Z,6.13
2022-09-17T19:14:01.819Z,7.35
2022-09-17T19:16:29.174Z,9.90
2022-09-17T19:18:56.516Z,6.43
2022-09-17T19:21:24.409Z,7.97
2022-09-17T19:23:52.721Z,8.13
2022-09-17T19:26:22.492Z,4.88
2022-09-17T19:28:54.768Z,8.40
2022-09-17T19:31:22.814Z,18.88
2022-09-17T19:33:51.663Z,7.60
2022-09-17T19:36:20.069Z,5.97
2022-09-17T19:38:48.312Z,4.18
2022-09-17T19:41:20.891Z,3.50
2022-09-17T19:43:51.956Z,1.38
2022-09-17T19:46:22.177Z,9.40
2022-09-17T19:48:54.635Z,5.70
2022-09-17T19:51:24.459Z,11.02
2022-09-17T19:53:52.884Z,10.02
2022-09-17T19:56:22.903Z,11.07
2022-09-17T19:58:51.494Z,12.45
2022-09-17T20:01:19.363Z,5.82
2022-09-17T20:03:47.248Z,3.50
2022-09-17T20:06:17.476Z,9.65
2022-09-17T20:08:47.535Z,2.53
2022-09-17T20:11:15.941Z,8.38
2022-09-17T20:13:43.596Z,2.20
2022-09-17T20:16:20.266Z,3.33
2022-09-17T20:18:49.178Z,4.47
2022-09-17T20:21:22.481Z,3.25
2022-09-17T20:23:50.832Z,2.47
2022-09-17T20:26:18.847Z,4.20
2022-09-17T20:28:49.244Z,2.45
2022-09-17T20:31:22.759Z,2.85
2022-09-17T20:33:59.369Z,2.03
2022-09-17T20:36:33.380Z,3.63
2022-09-17T20:39:22.367Z,4.47
2022-09-17T20:41:49.069Z,1.65
2022-09-17T20:44:17.673Z,2.28
2022-09-17T20:46:44.933Z,3.00
2022-09-17T20:49:12.355Z,2.40
2022-09-17T20:51:39.571Z,5.28
2022-09-17T20:54:08.795Z,3.90
2022-09-17T20:56:36.062Z,2.00
2022-09-17T20:59:17.905Z,3.65
2022-09-17T21:01:49.461Z,3.50
2022-09-17T21:06:52.514Z,1.30
2022-09-17T21:09:20.212Z,2.67
2022-09-17T21:11:49.434Z,4.78
2022-09-17T21:14:18.114Z,1.73
2022-09-17T21:16:45.863Z,5.80
2022-09-17T21:19:14.082Z,3.33
2022-09-17T21:21:42.230Z,2.35
2022-09-17T21:24:10.210Z,3.00
2022-09-17T21:26:38.404Z,2.63
2022-09-17T21:29:05.805Z,4.45
2022-09-17T21:31:37.003Z,2.35
2022-09-17T21:34:07.605Z,2.97
2022-09-17T21:39:42.469Z,3.65
2022-09-17T21:42:10.371Z,6.63
2022-09-17T21:44:37.621Z,3.58
2022-09-17T21:47:08.046Z,4.10
2022-09-17T21:52:24.825Z,3.72
2022-09-17T21:54:52.830Z,7.25
2022-09-17T21:57:20.028Z,2.60
2022-09-17T21:59:47.227Z,14.40
2022-09-17T22:02:15.439Z,3.30
2022-09-17T22:04:43.085Z,6.18
2022-09-17T22:07:10.464Z,5.97
2022-09-17T22:09:40.822Z,3.20
2022-09-17T22:12:08.476Z,2.75
2022-09-17T22:14:35.693Z,5.93
2022-09-17T22:17:03.340Z,3.20
2022-09-17T22:19:30.640Z,6.38
2022-09-17T22:21:57.965Z,3.30
2022-09-17T22:24:25.873Z,2.80
2022-09-17T22:26:57.237Z,3.15
2022-09-17T22:31:53.964Z,2.63
2022-09-17T22:34:22.800Z,3.17
2022-09-17T22:36:50.386Z,4.60
2022-09-17T22:39:20.882Z,3.40
2022-09-17T22:41:49.090Z,7.85
2022-09-17T22:44:18.797Z,4.18
2022-09-17T22:46:48.112Z,6.25
2022-09-17T22:49:15.961Z,4.57
2022-09-17T22:51:44.868Z,3.15
2022-09-17T22:54:14.381Z,3.17
2022-09-17T22:56:42.357Z,3.78
2022-09-17T22:59:10.272Z,3.40
2022-09-17T23:01:40.153Z,3.10
2022-09-17T23:04:07.700Z,7.13
2022-09-17T23:06:37.988Z,9.40
2022-09-17T23:09:06.016Z,4.53
2022-09-17T23:11:36.916Z,2.90
2022-09-17T23:14:08.084Z,6.20
2022-09-17T23:16:37.982Z,4.40
2022-09-17T23:19:05.693Z,3.15
2022-09-17T23:21:33.367Z,6.53
2022-09-17T23:24:00.874Z,3.60
2022-09-17T23:26:28.477Z,4.07
2022-09-17T23:28:56.843Z,6.00
2022-09-17T23:31:27.972Z,2.60
2022-09-17T23:33:57.074Z,4.35
2022-09-17T23:36:27.245Z,5.10
2022-09-17T23:38:56.197Z,3.53
2022-09-17T23:41:32.465Z,2.88
2022-09-17T23:44:01.883Z,2.83
2022-09-17T23:46:32.631Z,4.20
2022-09-17T23:49:00.505Z,4.97
2022-09-17T23:51:30.632Z,2.30
2022-09-17T23:53:58.695Z,3.05
2022-09-17T23:56:27.969Z,4.53
2022-09-17T23:58:56.394Z,1.67
